Terminal Aerodrome Forecast
Issued by NWS

Home | Current Version | Previous Version | Text Only | Print | Product List | Glossary On
Versions: 1 2 3 4 5 6 7 8 9 10 11 12 13 14 15 16 17 18
000
FTUS46 KPDT 262300
TAFDLS
TAF
KDLS 262326Z 2700/2724 VRB03KT P6SM BKN200
     FM270300 VRB03KT P6SM BKN150
     FM270900 30005KT P6SM OVC080
     FM271500 VRB05KT P6SM -SHRA SCT040 OVC060=

USA.gov is the U.S. government's official web portal to all federal, state and local government web resources and services.